Aérodrome :
LOGIN :

S'inscrire | Disclaimer

   EN    FR    IT 

 










Légende :    VFR   VFR Marginal   IFR   IFR Intensif   IFR Très Intensif
Visi : 
Plafond : 
>= 8 km
>= 3000ft
5 à 8 km
1000 à 3000 ft
1500m à 5 km
500 à 1000 ft
800 à 1500m
200 à 500 ft
< 800m
< 200 ft
Symboles :   Orages  Brouillard  Fortes neiges  Fortes précipitations  Vent > 20 kt
SIGMETs :   Divers  Orages  Givrage  Turbulence  Onde Orograph.  Cendres Volcan.







- Altitude de l'aérodrome : 66 ft
- Code IATA : AOK


LGKP - Karpathos

DERNIER METAR :
  • 270720Z 32027G37KT 9999 FEW016 27/22 Q1008

METARs EXPIRÉS :
  • 270650Z 31026G36KT 9999 FEW016 27/23 Q1008
  • 270620Z 32023G33KT 9999 FEW016 27/22 Q1008
  • 270550Z 32023KT 9999 FEW016 26/23 Q1008
  • 270520Z 32022KT 9999 FEW016 26/23 Q1008
  • 270450Z 31021KT 9999 FEW016 25/23 Q1008

TAF TAF LGKP
Valide du 27 à 06h jusqu'au 27 à 15h UTC


270500Z 2706/2715 30015G25KT 9999 FEW016
Pas de NOTAMs connus pour ce terrain.



MET'MAP, la Météo Aéronautique d'un coup d'oeil ! - Copyright ORBIFLY Décembre 2007 - Disclaimer

ORBIFLY MET'MAP TEAM :

Programmation & Développement : Alexandra Zaïnal
Conception & Développement : Baudouin d'Aumeries
Co-Programmation & Développement : Marc-Olivier Méhu
Soutien technique & logistique : Manuel Goepfert

Contact : metmap@orbifly.com




SOURCES & CREDITS :

   NOAA